sensor_id;sensor_type;location;lat;lon;timestamp;temperature;humidity
15888;DHT22;56032;51.324;12.376;2022-11-04T00:02:01;10.00;99.90
15888;DHT22;56032;51.324;12.376;2022-11-04T00:04:32;9.90;99.90
15888;DHT22;56032;51.324;12.376;2022-11-04T00:07:01;9.90;99.90
15888;DHT22;56032;51.324;12.376;2022-11-04T00:09:51;10.00;99.90
15888;DHT22;56032;51.324;12.376;2022-11-04T00:12:20;10.00;99.90
15888;DHT22;56032;51.324;12.376;2022-11-04T00:14:52;10.00;99.90
15888;DHT22;56032;51.324;12.376;2022-11-04T00:17:41;10.00;99.90
15888;DHT22;56032;51.324;12.376;2022-11-04T00:20:09;10.10;99.90
15888;DHT22;56032;51.324;12.376;2022-11-04T00:22:55;10.10;99.90
15888;DHT22;56032;51.324;12.376;2022-11-04T00:25:41;10.10;99.90
15888;DHT22;56032;51.324;12.376;2022-11-04T00:28:42;10.20;99.90
15888;DHT22;56032;51.324;12.376;2022-11-04T00:31:29;10.20;99.90
15888;DHT22;56032;51.324;12.376;2022-11-04T00:34:15;10.20;99.90
15888;DHT22;56032;51.324;12.376;2022-11-04T00:37:01;10.20;99.90
15888;DHT22;56032;51.324;12.376;2022-11-04T00:39:46;10.30;99.90
15888;DHT22;56032;51.324;12.376;2022-11-04T00:42:32;10.40;99.90
15888;DHT22;56032;51.324;12.376;2022-11-04T00:45:18;10.40;99.90
15888;DHT22;56032;51.324;12.376;2022-11-04T00:48:06;10.30;99.90
15888;DHT22;56032;51.324;12.376;2022-11-04T00:50:51;10.50;99.90
15888;DHT22;56032;51.324;12.376;2022-11-04T00:53:38;10.60;99.90
15888;DHT22;56032;51.324;12.376;2022-11-04T00:56:24;10.60;99.90
15888;DHT22;56032;51.324;12.376;2022-11-04T00:58:58;10.60;99.90
15888;DHT22;56032;51.324;12.376;2022-11-04T01:01:38;10.60;99.90
15888;DHT22;56032;51.324;12.376;2022-11-04T01:04:12;10.60;99.90
15888;DHT22;56032;51.324;12.376;2022-11-04T01:06:41;10.60;99.90
15888;DHT22;56032;51.324;12.376;2022-11-04T01:09:18;10.60;99.90
15888;DHT22;56032;51.324;12.376;2022-11-04T01:11:53;10.60;99.90
15888;DHT22;56032;51.324;12.376;2022-11-04T01:14:22;10.70;99.90
15888;DHT22;56032;51.324;12.376;2022-11-04T01:16:52;10.70;99.90
15888;DHT22;56032;51.324;12.376;2022-11-04T01:19:22;10.70;99.90
15888;DHT22;56032;51.324;12.376;2022-11-04T01:21:51;10.80;99.90
15888;DHT22;56032;51.324;12.376;2022-11-04T01:24:20;10.80;99.90
15888;DHT22;56032;51.324;12.376;2022-11-04T01:26:51;10.80;99.90
15888;DHT22;56032;51.324;12.376;2022-11-04T01:29:23;10.80;99.90
15888;DHT22;56032;51.324;12.376;2022-11-04T01:31:51;10.80;99.90
15888;DHT22;56032;51.324;12.376;2022-11-04T01:34:20;10.80;99.90
15888;DHT22;56032;51.324;12.376;2022-11-04T01:36:50;10.80;99.90
15888;DHT22;56032;51.324;12.376;2022-11-04T01:39:19;10.80;99.90
15888;DHT22;56032;51.324;12.376;2022-11-04T01:41:47;10.80;99.90
15888;DHT22;56032;51.324;12.376;2022-11-04T01:47:04;10.50;99.90
15888;DHT22;56032;51.324;12.376;2022-11-04T01:49:34;10.80;99.90
15888;DHT22;56032;51.324;12.376;2022-11-04T01:52:11;10.80;99.90
15888;DHT22;56032;51.324;12.376;2022-11-04T01:54:42;10.90;99.90
15888;DHT22;56032;51.324;12.376;2022-11-04T01:57:15;10.90;99.90
15888;DHT22;56032;51.324;12.376;2022-11-04T01:59:44;10.90;99.90
15888;DHT22;56032;51.324;12.376;2022-11-04T02:02:13;10.90;99.90
15888;DHT22;56032;51.324;12.376;2022-11-04T02:04:42;10.80;99.90
15888;DHT22;56032;51.324;12.376;2022-11-04T02:07:12;10.80;99.90
15888;DHT22;56032;51.324;12.376;2022-11-04T02:09:42;10.90;99.90
15888;DHT22;56032;51.324;12.376;2022-11-04T02:12:11;10.80;99.90
15888;DHT22;56032;51.324;12.376;2022-11-04T02:15:00;10.80;99.90
15888;DHT22;56032;51.324;12.376;2022-11-04T02:17:35;10.80;99.90
15888;DHT22;56032;51.324;12.376;2022-11-04T02:20:20;10.90;99.90
15888;DHT22;56032;51.324;12.376;2022-11-04T02:23:02;10.90;99.90
15888;DHT22;56032;51.324;12.376;2022-11-04T02:25:50;10.90;99.90
15888;DHT22;56032;51.324;12.376;2022-11-04T02:28:37;10.90;99.90
15888;DHT22;56032;51.324;12.376;2022-11-04T02:31:13;10.90;99.90
15888;DHT22;56032;51.324;12.376;2022-11-04T02:33:46;10.90;99.90
15888;DHT22;56032;51.324;12.376;2022-11-04T02:36:19;10.90;99.90
15888;DHT22;56032;51.324;12.376;2022-11-04T02:38:53;10.90;99.90
15888;DHT22;56032;51.324;12.376;2022-11-04T02:41:30;10.90;99.90
15888;DHT22;56032;51.324;12.376;2022-11-04T02:44:06;10.90;99.90
15888;DHT22;56032;51.324;12.376;2022-11-04T02:53:27;11.00;99.90
15888;DHT22;56032;51.324;12.376;2022-11-04T02:56:33;10.90;99.90
15888;DHT22;56032;51.324;12.376;2022-11-04T02:59:16;10.90;99.90
15888;DHT22;56032;51.324;12.376;2022-11-04T03:04:50;10.60;99.90
15888;DHT22;56032;51.324;12.376;2022-11-04T03:07:21;10.90;99.90
15888;DHT22;56032;51.324;12.376;2022-11-04T03:09:53;10.90;99.90
15888;DHT22;56032;51.324;12.376;2022-11-04T03:12:23;10.90;99.90
15888;DHT22;56032;51.324;12.376;2022-11-04T03:14:54;10.90;99.90
15888;DHT22;56032;51.324;12.376;2022-11-04T03:17:29;10.80;99.90
15888;DHT22;56032;51.324;12.376;2022-11-04T03:19:59;10.90;99.90
15888;DHT22;56032;51.324;12.376;2022-11-04T03:22:35;10.90;99.90
15888;DHT22;56032;51.324;12.376;2022-11-04T03:25:07;10.90;99.90
15888;DHT22;56032;51.324;12.376;2022-11-04T03:27:39;10.80;99.90
15888;DHT22;56032;51.324;12.376;2022-11-04T03:30:11;10.80;99.90
15888;DHT22;56032;51.324;12.376;2022-11-04T03:32:45;10.70;99.90
15888;DHT22;56032;51.324;12.376;2022-11-04T03:35:16;10.70;99.90
15888;DHT22;56032;51.324;12.376;2022-11-04T03:37:46;10.70;99.90
15888;DHT22;56032;51.324;12.376;2022-11-04T03:40:17;10.70;99.90
15888;DHT22;56032;51.324;12.376;2022-11-04T03:42:47;10.80;99.90
15888;DHT22;56032;51.324;12.376;2022-11-04T03:45:23;10.80;99.90
15888;DHT22;56032;51.324;12.376;2022-11-04T03:47:54;10.80;99.90
15888;DHT22;56032;51.324;12.376;2022-11-04T03:50:24;10.80;99.90
15888;DHT22;56032;51.324;12.376;2022-11-04T03:52:54;10.80;99.90
15888;DHT22;56032;51.324;12.376;2022-11-04T03:55:30;10.80;99.90
15888;DHT22;56032;51.324;12.376;2022-11-04T03:58:03;10.80;99.90
15888;DHT22;56032;51.324;12.376;2022-11-04T04:00:38;10.80;99.90
15888;DHT22;56032;51.324;12.376;2022-11-04T04:03:13;10.90;99.90
15888;DHT22;56032;51.324;12.376;2022-11-04T04:05:45;10.90;99.90
15888;DHT22;56032;51.324;12.376;2022-11-04T04:08:17;10.90;99.90
15888;DHT22;56032;51.324;12.376;2022-11-04T04:10:51;10.90;99.90
15888;DHT22;56032;51.324;12.376;2022-11-04T04:13:24;10.90;99.90
15888;DHT22;56032;51.324;12.376;2022-11-04T04:15:56;11.00;99.90
15888;DHT22;56032;51.324;12.376;2022-11-04T04:18:29;11.00;99.90
15888;DHT22;56032;51.324;12.376;2022-11-04T04:20:58;11.00;99.90
15888;DHT22;56032;51.324;12.376;2022-11-04T04:23:31;10.70;99.90
15888;DHT22;56032;51.324;12.376;2022-11-04T04:26:20;11.00;99.90
15888;DHT22;56032;51.324;12.376;2022-11-04T04:29:10;11.00;99.90
15888;DHT22;56032;51.324;12.376;2022-11-04T04:31:38;11.10;99.90
15888;DHT22;56032;51.324;12.376;2022-11-04T04:34:18;11.10;99.90
15888;DHT22;56032;51.324;12.376;2022-11-04T04:36:48;11.10;99.90
15888;DHT22;56032;51.324;12.376;2022-11-04T04:39:19;11.00;99.90
15888;DHT22;56032;51.324;12.376;2022-11-04T04:42:07;11.00;99.90
15888;DHT22;56032;51.324;12.376;2022-11-04T04:44:53;11.00;99.90
15888;DHT22;56032;51.324;12.376;2022-11-04T04:47:33;11.10;99.90
15888;DHT22;56032;51.324;12.376;2022-11-04T04:50:03;11.10;99.90
15888;DHT22;56032;51.324;12.376;2022-11-04T04:52:32;11.10;99.90
15888;DHT22;56032;51.324;12.376;2022-11-04T04:55:01;11.10;99.90
15888;DHT22;56032;51.324;12.376;2022-11-04T04:57:31;11.10;99.90
15888;DHT22;56032;51.324;12.376;2022-11-04T04:59:59;11.10;99.90
15888;DHT22;56032;51.324;12.376;2022-11-04T05:02:28;11.10;99.90
15888;DHT22;56032;51.324;12.376;2022-11-04T05:04:56;11.10;99.90
15888;DHT22;56032;51.324;12.376;2022-11-04T05:07:25;11.10;99.90
15888;DHT22;56032;51.324;12.376;2022-11-04T05:09:54;11.20;99.90
15888;DHT22;56032;51.324;12.376;2022-11-04T05:12:22;11.20;99.90
15888;DHT22;56032;51.324;12.376;2022-11-04T05:14:52;11.20;99.90
15888;DHT22;56032;51.324;12.376;2022-11-04T05:17:21;11.00;99.90
15888;DHT22;56032;51.324;12.376;2022-11-04T05:19:49;11.20;99.90
15888;DHT22;56032;51.324;12.376;2022-11-04T05:22:17;11.20;99.90
15888;DHT22;56032;51.324;12.376;2022-11-04T05:24:49;11.20;99.90
15888;DHT22;56032;51.324;12.376;2022-11-04T05:27:20;11.20;99.90
15888;DHT22;56032;51.324;12.376;2022-11-04T05:29:53;11.20;99.90
15888;DHT22;56032;51.324;12.376;2022-11-04T05:32:22;11.20;99.90
15888;DHT22;56032;51.324;12.376;2022-11-04T05:34:50;11.20;99.90
15888;DHT22;56032;51.324;12.376;2022-11-04T05:37:19;11.20;99.90
15888;DHT22;56032;51.324;12.376;2022-11-04T05:39:51;11.20;99.90
15888;DHT22;56032;51.324;12.376;2022-11-04T05:42:20;11.30;99.90
15888;DHT22;56032;51.324;12.376;2022-11-04T05:44:49;11.20;99.90
15888;DHT22;56032;51.324;12.376;2022-11-04T05:47:22;11.20;99.90
15888;DHT22;56032;51.324;12.376;2022-11-04T05:49:50;11.20;99.90
15888;DHT22;56032;51.324;12.376;2022-11-04T05:52:18;11.20;99.90
15888;DHT22;56032;51.324;12.376;2022-11-04T05:54:47;11.20;99.90
15888;DHT22;56032;51.324;12.376;2022-11-04T05:57:15;11.20;99.90
15888;DHT22;56032;51.324;12.376;2022-11-04T05:59:43;11.20;99.90
15888;DHT22;56032;51.324;12.376;2022-11-04T06:02:13;11.20;99.90
15888;DHT22;56032;51.324;12.376;2022-11-04T06:04:43;11.10;99.90
15888;DHT22;56032;51.324;12.376;2022-11-04T06:07:11;11.20;99.90
15888;DHT22;56032;51.324;12.376;2022-11-04T06:09:40;11.10;99.90
15888;DHT22;56032;51.324;12.376;2022-11-04T06:12:09;11.20;99.90
15888;DHT22;56032;51.324;12.376;2022-11-04T06:14:37;11.20;99.90
15888;DHT22;56032;51.324;12.376;2022-11-04T06:17:06;11.10;99.90
15888;DHT22;56032;51.324;12.376;2022-11-04T06:19:34;11.10;99.90
15888;DHT22;56032;51.324;12.376;2022-11-04T06:22:04;11.10;99.90
15888;DHT22;56032;51.324;12.376;2022-11-04T06:24:33;11.20;99.90
15888;DHT22;56032;51.324;12.376;2022-11-04T06:27:01;11.20;99.90
15888;DHT22;56032;51.324;12.376;2022-11-04T06:29:30;11.20;99.90
15888;DHT22;56032;51.324;12.376;2022-11-04T06:31:58;11.10;99.90
15888;DHT22;56032;51.324;12.376;2022-11-04T06:34:27;11.20;99.90
15888;DHT22;56032;51.324;12.376;2022-11-04T06:39:45;11.10;99.90
15888;DHT22;56032;51.324;12.376;2022-11-04T06:42:13;11.10;99.90
15888;DHT22;56032;51.324;12.376;2022-11-04T06:44:42;11.10;99.90
15888;DHT22;56032;51.324;12.376;2022-11-04T06:47:11;11.20;99.90
15888;DHT22;56032;51.324;12.376;2022-11-04T06:49:39;11.20;99.90
15888;DHT22;56032;51.324;12.376;2022-11-04T06:52:08;11.20;99.90
15888;DHT22;56032;51.324;12.376;2022-11-04T06:54:37;11.20;99.90
15888;DHT22;56032;51.324;12.376;2022-11-04T06:57:12;11.30;99.90
15888;DHT22;56032;51.324;12.376;2022-11-04T06:59:43;11.20;99.90
15888;DHT22;56032;51.324;12.376;2022-11-04T07:02:12;11.40;99.90
15888;DHT22;56032;51.324;12.376;2022-11-04T07:04:53;11.40;99.90
15888;DHT22;56032;51.324;12.376;2022-11-04T07:07:21;11.30;99.90
15888;DHT22;56032;51.324;12.376;2022-11-04T07:09:50;11.30;99.90
15888;DHT22;56032;51.324;12.376;2022-11-04T07:12:19;11.30;99.90
15888;DHT22;56032;51.324;12.376;2022-11-04T07:14:50;11.30;99.90
15888;DHT22;56032;51.324;12.376;2022-11-04T07:17:22;11.30;99.90
15888;DHT22;56032;51.324;12.376;2022-11-04T07:20:05;11.30;99.90
15888;DHT22;56032;51.324;12.376;2022-11-04T07:22:33;11.30;99.90
15888;DHT22;56032;51.324;12.376;2022-11-04T07:25:02;11.30;99.90
15888;DHT22;56032;51.324;12.376;2022-11-04T07:27:32;11.30;99.90
15888;DHT22;56032;51.324;12.376;2022-11-04T07:32:54;11.30;99.90
15888;DHT22;56032;51.324;12.376;2022-11-04T07:35:23;11.30;99.90
15888;DHT22;56032;51.324;12.376;2022-11-04T07:37:53;11.30;99.90
15888;DHT22;56032;51.324;12.376;2022-11-04T07:40:22;11.30;99.90
15888;DHT22;56032;51.324;12.376;2022-11-04T07:48:31;11.30;99.90
15888;DHT22;56032;51.324;12.376;2022-11-04T07:51:01;11.30;99.90
15888;DHT22;56032;51.324;12.376;2022-11-04T07:53:44;11.40;99.90
15888;DHT22;56032;51.324;12.376;2022-11-04T07:56:17;11.30;99.90
15888;DHT22;56032;51.324;12.376;2022-11-04T07:58:57;11.30;99.90
15888;DHT22;56032;51.324;12.376;2022-11-04T08:01:42;11.30;99.90
15888;DHT22;56032;51.324;12.376;2022-11-04T08:04:13;11.30;99.90
15888;DHT22;56032;51.324;12.376;2022-11-04T08:06:41;11.30;99.90
15888;DHT22;56032;51.324;12.376;2022-11-04T08:09:10;11.30;99.90
15888;DHT22;56032;51.324;12.376;2022-11-04T08:11:40;11.30;99.90
15888;DHT22;56032;51.324;12.376;2022-11-04T08:14:11;11.30;99.90
15888;DHT22;56032;51.324;12.376;2022-11-04T08:16:40;11.30;99.90
15888;DHT22;56032;51.324;12.376;2022-11-04T08:19:09;11.30;99.90
15888;DHT22;56032;51.324;12.376;2022-11-04T08:21:41;11.30;99.90
15888;DHT22;56032;51.324;12.376;2022-11-04T08:24:13;11.30;99.90
15888;DHT22;56032;51.324;12.376;2022-11-04T08:27:20;11.30;99.90
15888;DHT22;56032;51.324;12.376;2022-11-04T08:29:55;11.30;99.90
15888;DHT22;56032;51.324;12.376;2022-11-04T08:32:28;11.30;99.90
15888;DHT22;56032;51.324;12.376;2022-11-04T08:34:57;11.30;99.90
15888;DHT22;56032;51.324;12.376;2022-11-04T08:37:27;11.30;99.90
15888;DHT22;56032;51.324;12.376;2022-11-04T08:39:56;11.30;99.90
15888;DHT22;56032;51.324;12.376;2022-11-04T08:42:25;11.30;99.90
15888;DHT22;56032;51.324;12.376;2022-11-04T08:44:53;11.30;99.90
15888;DHT22;56032;51.324;12.376;2022-11-04T08:47:24;11.30;99.90
15888;DHT22;56032;51.324;12.376;2022-11-04T08:49:52;11.30;99.90
15888;DHT22;56032;51.324;12.376;2022-11-04T08:52:21;11.30;99.90
15888;DHT22;56032;51.324;12.376;2022-11-04T08:57:45;11.40;99.90
15888;DHT22;56032;51.324;12.376;2022-11-04T09:00:15;11.50;99.90
15888;DHT22;56032;51.324;12.376;2022-11-04T09:02:44;11.50;99.90
15888;DHT22;56032;51.324;12.376;2022-11-04T09:05:12;11.60;99.90
15888;DHT22;56032;51.324;12.376;2022-11-04T09:07:42;11.60;99.90
15888;DHT22;56032;51.324;12.376;2022-11-04T09:10:13;11.70;99.90
15888;DHT22;56032;51.324;12.376;2022-11-04T09:12:48;11.70;99.90
15888;DHT22;56032;51.324;12.376;2022-11-04T09:15:16;11.70;99.90
15888;DHT22;56032;51.324;12.376;2022-11-04T09:17:49;11.80;99.90
15888;DHT22;56032;51.324;12.376;2022-11-04T09:20:17;11.80;99.90
15888;DHT22;56032;51.324;12.376;2022-11-04T09:22:46;11.80;99.90
15888;DHT22;56032;51.324;12.376;2022-11-04T09:25:16;11.80;99.90
15888;DHT22;56032;51.324;12.376;2022-11-04T09:27:46;11.80;99.90
15888;DHT22;56032;51.324;12.376;2022-11-04T09:30:15;11.80;99.90
15888;DHT22;56032;51.324;12.376;2022-11-04T09:32:43;11.80;99.90
15888;DHT22;56032;51.324;12.376;2022-11-04T09:35:18;11.80;99.90
15888;DHT22;56032;51.324;12.376;2022-11-04T09:37:46;11.80;99.90
15888;DHT22;56032;51.324;12.376;2022-11-04T09:40:16;11.80;99.90
15888;DHT22;56032;51.324;12.376;2022-11-04T09:42:50;11.80;99.90
15888;DHT22;56032;51.324;12.376;2022-11-04T09:45:22;11.70;99.90
15888;DHT22;56032;51.324;12.376;2022-11-04T09:47:54;11.70;99.90
15888;DHT22;56032;51.324;12.376;2022-11-04T09:50:24;11.70;99.90
15888;DHT22;56032;51.324;12.376;2022-11-04T09:52:54;11.70;99.90
15888;DHT22;56032;51.324;12.376;2022-11-04T09:55:25;11.60;99.90
15888;DHT22;56032;51.324;12.376;2022-11-04T09:58:01;11.60;99.90
15888;DHT22;56032;51.324;12.376;2022-11-04T10:00:30;11.60;99.90
15888;DHT22;56032;51.324;12.376;2022-11-04T10:03:11;11.50;99.90
15888;DHT22;56032;51.324;12.376;2022-11-04T10:05:49;11.50;99.90
15888;DHT22;56032;51.324;12.376;2022-11-04T10:11:13;11.50;99.90
15888;DHT22;56032;51.324;12.376;2022-11-04T10:13:48;11.50;99.90
15888;DHT22;56032;51.324;12.376;2022-11-04T10:16:29;11.50;99.90
15888;DHT22;56032;51.324;12.376;2022-11-04T10:19:05;11.50;99.90
15888;DHT22;56032;51.324;12.376;2022-11-04T10:22:00;11.50;99.90
15888;DHT22;56032;51.324;12.376;2022-11-04T10:24:35;11.30;99.90
15888;DHT22;56032;51.324;12.376;2022-11-04T10:27:11;11.50;99.90
15888;DHT22;56032;51.324;12.376;2022-11-04T10:29:43;11.50;99.90
15888;DHT22;56032;51.324;12.376;2022-11-04T10:32:13;11.50;99.90
15888;DHT22;56032;51.324;12.376;2022-11-04T10:34:49;11.50;99.90
15888;DHT22;56032;51.324;12.376;2022-11-04T10:37:20;11.50;99.90
15888;DHT22;56032;51.324;12.376;2022-11-04T10:39:51;11.50;99.90
15888;DHT22;56032;51.324;12.376;2022-11-04T10:42:21;11.50;99.90
15888;DHT22;56032;51.324;12.376;2022-11-04T10:45:10;11.50;99.90
15888;DHT22;56032;51.324;12.376;2022-11-04T10:48:01;11.40;99.90
15888;DHT22;56032;51.324;12.376;2022-11-04T10:50:41;11.40;99.90
15888;DHT22;56032;51.324;12.376;2022-11-04T10:53:39;11.30;99.90
15888;DHT22;56032;51.324;12.376;2022-11-04T10:56:28;11.40;99.90
15888;DHT22;56032;51.324;12.376;2022-11-04T10:58:59;11.40;99.90
15888;DHT22;56032;51.324;12.376;2022-11-04T11:01:38;11.30;99.90
15888;DHT22;56032;51.324;12.376;2022-11-04T11:04:34;11.30;99.90
15888;DHT22;56032;51.324;12.376;2022-11-04T11:07:07;11.30;99.90
15888;DHT22;56032;51.324;12.376;2022-11-04T11:12:27;11.30;99.90
15888;DHT22;56032;51.324;12.376;2022-11-04T11:15:20;11.30;99.90
15888;DHT22;56032;51.324;12.376;2022-11-04T11:18:21;11.20;99.90
15888;DHT22;56032;51.324;12.376;2022-11-04T11:23:54;11.30;99.90
15888;DHT22;56032;51.324;12.376;2022-11-04T11:26:29;11.20;99.90
15888;DHT22;56032;51.324;12.376;2022-11-04T11:28:58;11.20;99.90
15888;DHT22;56032;51.324;12.376;2022-11-04T11:31:33;11.30;99.90
15888;DHT22;56032;51.324;12.376;2022-11-04T11:34:04;11.30;99.90
15888;DHT22;56032;51.324;12.376;2022-11-04T11:36:33;11.30;99.90
15888;DHT22;56032;51.324;12.376;2022-11-04T11:39:04;11.30;99.90
15888;DHT22;56032;51.324;12.376;2022-11-04T11:41:47;11.30;99.90
15888;DHT22;56032;51.324;12.376;2022-11-04T11:44:21;11.30;99.90
15888;DHT22;56032;51.324;12.376;2022-11-04T11:46:51;11.30;99.90
15888;DHT22;56032;51.324;12.376;2022-11-04T11:49:26;11.30;99.90
15888;DHT22;56032;51.324;12.376;2022-11-04T11:52:21;11.40;99.90
15888;DHT22;56032;51.324;12.376;2022-11-04T11:54:52;11.30;99.90
15888;DHT22;56032;51.324;12.376;2022-11-04T11:57:34;11.30;99.90
15888;DHT22;56032;51.324;12.376;2022-11-04T12:00:07;11.30;99.90
15888;DHT22;56032;51.324;12.376;2022-11-04T12:02:59;11.30;99.90
15888;DHT22;56032;51.324;12.376;2022-11-04T12:05:32;11.30;99.90
15888;DHT22;56032;51.324;12.376;2022-11-04T12:08:29;11.30;99.90
15888;DHT22;56032;51.324;12.376;2022-11-04T12:11:21;11.30;99.90
15888;DHT22;56032;51.324;12.376;2022-11-04T12:13:54;11.30;99.90
15888;DHT22;56032;51.324;12.376;2022-11-04T12:16:27;11.30;99.90
15888;DHT22;56032;51.324;12.376;2022-11-04T12:19:06;11.30;99.90
15888;DHT22;56032;51.324;12.376;2022-11-04T12:21:38;11.30;99.90
15888;DHT22;56032;51.324;12.376;2022-11-04T12:24:12;11.30;99.90
15888;DHT22;56032;51.324;12.376;2022-11-04T12:26:43;11.30;99.90
15888;DHT22;56032;51.324;12.376;2022-11-04T12:29:29;11.40;99.90
15888;DHT22;56032;51.324;12.376;2022-11-04T12:32:03;11.40;99.90
15888;DHT22;56032;51.324;12.376;2022-11-04T12:34:40;11.40;99.90
15888;DHT22;56032;51.324;12.376;2022-11-04T12:37:17;11.40;99.90
15888;DHT22;56032;51.324;12.376;2022-11-04T12:40:01;11.50;99.90
15888;DHT22;56032;51.324;12.376;2022-11-04T12:42:34;11.50;99.90
15888;DHT22;56032;51.324;12.376;2022-11-04T12:45:09;11.60;99.90
15888;DHT22;56032;51.324;12.376;2022-11-04T12:47:43;11.60;99.90
15888;DHT22;56032;51.324;12.376;2022-11-04T12:50:15;11.60;99.90
15888;DHT22;56032;51.324;12.376;2022-11-04T12:52:52;11.70;99.90
15888;DHT22;56032;51.324;12.376;2022-11-04T12:55:29;11.70;99.90
15888;DHT22;56032;51.324;12.376;2022-11-04T12:58:01;11.70;99.90
15888;DHT22;56032;51.324;12.376;2022-11-04T13:00:33;11.70;99.90
15888;DHT22;56032;51.324;12.376;2022-11-04T13:03:07;11.70;99.90
15888;DHT22;56032;51.324;12.376;2022-11-04T13:05:39;11.70;99.90
15888;DHT22;56032;51.324;12.376;2022-11-04T13:08:17;11.70;99.90
15888;DHT22;56032;51.324;12.376;2022-11-04T13:10:51;11.70;99.90
15888;DHT22;56032;51.324;12.376;2022-11-04T13:13:22;11.70;99.90
15888;DHT22;56032;51.324;12.376;2022-11-04T13:15:52;11.80;99.90
15888;DHT22;56032;51.324;12.376;2022-11-04T13:18:36;11.90;99.90
15888;DHT22;56032;51.324;12.376;2022-11-04T13:21:07;12.00;99.90
15888;DHT22;56032;51.324;12.376;2022-11-04T13:23:41;11.90;99.90
15888;DHT22;56032;51.324;12.376;2022-11-04T13:26:16;11.90;99.90
15888;DHT22;56032;51.324;12.376;2022-11-04T13:28:52;11.80;99.90
15888;DHT22;56032;51.324;12.376;2022-11-04T13:31:45;11.80;99.90
15888;DHT22;56032;51.324;12.376;2022-11-04T13:34:17;11.70;99.90
15888;DHT22;56032;51.324;12.376;2022-11-04T13:36:50;11.60;99.90
15888;DHT22;56032;51.324;12.376;2022-11-04T13:39:25;11.60;99.90
15888;DHT22;56032;51.324;12.376;2022-11-04T13:44:53;11.60;99.90
15888;DHT22;56032;51.324;12.376;2022-11-04T13:47:24;11.60;99.90
15888;DHT22;56032;51.324;12.376;2022-11-04T13:49:55;11.60;99.90
15888;DHT22;56032;51.324;12.376;2022-11-04T13:52:24;11.60;99.90
15888;DHT22;56032;51.324;12.376;2022-11-04T13:54:57;11.60;99.90
15888;DHT22;56032;51.324;12.376;2022-11-04T13:57:27;11.60;99.90
15888;DHT22;56032;51.324;12.376;2022-11-04T14:00:16;11.70;99.90
15888;DHT22;56032;51.324;12.376;2022-11-04T14:02:46;11.60;99.90
15888;DHT22;56032;51.324;12.376;2022-11-04T14:08:15;11.50;99.90
15888;DHT22;56032;51.324;12.376;2022-11-04T14:11:11;11.40;99.90
15888;DHT22;56032;51.324;12.376;2022-11-04T14:16:39;11.60;99.90
15888;DHT22;56032;51.324;12.376;2022-11-04T14:22:10;11.50;99.90
15888;DHT22;56032;51.324;12.376;2022-11-04T14:24:40;11.50;99.90
15888;DHT22;56032;51.324;12.376;2022-11-04T14:33:06;11.60;99.90
15888;DHT22;56032;51.324;12.376;2022-11-04T14:35:46;11.60;99.90
15888;DHT22;56032;51.324;12.376;2022-11-04T14:38:19;11.60;99.90
15888;DHT22;56032;51.324;12.376;2022-11-04T14:40:50;11.50;99.90
15888;DHT22;56032;51.324;12.376;2022-11-04T14:43:26;11.50;99.90
15888;DHT22;56032;51.324;12.376;2022-11-04T14:45:57;11.40;99.90
15888;DHT22;56032;51.324;12.376;2022-11-04T14:48:28;11.40;99.90
15888;DHT22;56032;51.324;12.376;2022-11-04T14:50:57;11.50;99.90
15888;DHT22;56032;51.324;12.376;2022-11-04T14:53:29;11.50;99.90
15888;DHT22;56032;51.324;12.376;2022-11-04T14:56:05;11.50;99.90
15888;DHT22;56032;51.324;12.376;2022-11-04T14:58:50;11.30;99.90
15888;DHT22;56032;51.324;12.376;2022-11-04T15:01:19;11.50;99.90
15888;DHT22;56032;51.324;12.376;2022-11-04T15:03:49;11.40;99.90
15888;DHT22;56032;51.324;12.376;2022-11-04T15:06:42;11.30;99.90
15888;DHT22;56032;51.324;12.376;2022-11-04T15:09:22;11.30;99.90
15888;DHT22;56032;51.324;12.376;2022-11-04T15:12:02;11.30;99.90
15888;DHT22;56032;51.324;12.376;2022-11-04T15:14:59;11.30;99.90
15888;DHT22;56032;51.324;12.376;2022-11-04T15:17:28;11.30;99.90
15888;DHT22;56032;51.324;12.376;2022-11-04T15:19:59;11.30;99.90
15888;DHT22;56032;51.324;12.376;2022-11-04T15:22:35;11.30;99.90
15888;DHT22;56032;51.324;12.376;2022-11-04T15:25:08;11.30;99.90
15888;DHT22;56032;51.324;12.376;2022-11-04T15:27:38;11.30;99.90
15888;DHT22;56032;51.324;12.376;2022-11-04T15:30:15;11.30;99.90
15888;DHT22;56032;51.324;12.376;2022-11-04T15:32:52;11.20;99.90
15888;DHT22;56032;51.324;12.376;2022-11-04T15:35:22;11.10;99.90
15888;DHT22;56032;51.324;12.376;2022-11-04T15:37:53;11.20;99.90
15888;DHT22;56032;51.324;12.376;2022-11-04T15:40:25;11.30;99.90
15888;DHT22;56032;51.324;12.376;2022-11-04T15:42:54;11.20;99.90
15888;DHT22;56032;51.324;12.376;2022-11-04T15:45:25;11.20;99.90
15888;DHT22;56032;51.324;12.376;2022-11-04T15:50:42;11.20;99.90
15888;DHT22;56032;51.324;12.376;2022-11-04T15:53:13;11.10;99.90
15888;DHT22;56032;51.324;12.376;2022-11-04T15:55:43;11.20;99.90
15888;DHT22;56032;51.324;12.376;2022-11-04T15:58:14;11.20;99.90
15888;DHT22;56032;51.324;12.376;2022-11-04T16:00:43;11.20;99.90
15888;DHT22;56032;51.324;12.376;2022-11-04T16:03:18;11.20;99.90
15888;DHT22;56032;51.324;12.376;2022-11-04T16:06:02;11.20;99.90
15888;DHT22;56032;51.324;12.376;2022-11-04T16:08:31;11.10;99.90
15888;DHT22;56032;51.324;12.376;2022-11-04T16:11:07;11.10;99.90
15888;DHT22;56032;51.324;12.376;2022-11-04T16:13:36;11.10;99.90
15888;DHT22;56032;51.324;12.376;2022-11-04T16:16:06;11.10;99.90
15888;DHT22;56032;51.324;12.376;2022-11-04T16:18:36;11.10;99.90
15888;DHT22;56032;51.324;12.376;2022-11-04T16:21:08;11.10;99.90
15888;DHT22;56032;51.324;12.376;2022-11-04T16:23:41;11.10;99.90
15888;DHT22;56032;51.324;12.376;2022-11-04T16:26:11;11.10;99.90
15888;DHT22;56032;51.324;12.376;2022-11-04T16:28:39;11.10;99.90
15888;DHT22;56032;51.324;12.376;2022-11-04T16:31:22;11.00;99.90
15888;DHT22;56032;51.324;12.376;2022-11-04T16:33:51;11.10;99.90
15888;DHT22;56032;51.324;12.376;2022-11-04T16:36:24;11.00;99.90
15888;DHT22;56032;51.324;12.376;2022-11-04T16:39:01;11.00;99.90
15888;DHT22;56032;51.324;12.376;2022-11-04T16:41:35;11.00;99.90
15888;DHT22;56032;51.324;12.376;2022-11-04T16:44:04;10.90;99.90
15888;DHT22;56032;51.324;12.376;2022-11-04T16:46:37;11.00;99.90
15888;DHT22;56032;51.324;12.376;2022-11-04T16:49:07;11.00;99.90
15888;DHT22;56032;51.324;12.376;2022-11-04T16:51:38;11.00;99.90
15888;DHT22;56032;51.324;12.376;2022-11-04T16:54:06;11.00;99.90